createdAt,value
2019-04-23T00:01:08.018Z,7.20
2019-04-23T00:02:04.009Z,7.70
2019-04-23T00:02:58.829Z,5.60
2019-04-23T00:04:03.760Z,6.80
2019-04-23T00:04:55.562Z,6.80
2019-04-23T00:06:06.731Z,6.50
2019-04-23T00:07:10.725Z,7.70
2019-04-23T00:08:23.341Z,8.80
2019-04-23T00:10:04.544Z,5.60
2019-04-23T00:11:08.672Z,8.40
2019-04-23T00:12:01.804Z,9.30
2019-04-23T00:13:12.867Z,5.90
2019-04-23T00:15:08.692Z,7.20
2019-04-23T00:16:03.463Z,7.90
2019-04-23T00:17:01.117Z,4.40
2019-04-23T00:18:04.133Z,8.70
2019-04-23T00:18:59.342Z,4.20
2019-04-23T00:20:06.454Z,10.40
2019-04-23T00:20:57.632Z,6.30
2019-04-23T00:23:05.047Z,6.80
2019-04-23T00:24:17.580Z,6.80
2019-04-23T00:25:25.632Z,5.10
2019-04-23T00:27:05.854Z,6.30
2019-04-23T00:28:06.528Z,7.80
2019-04-23T00:29:05.420Z,5.60
2019-04-23T00:30:04.457Z,6.60
2019-04-23T00:31:18.501Z,7.70
2019-04-23T00:32:04.811Z,6.30
2019-04-23T00:33:07.487Z,4.60
2019-04-23T00:34:04.156Z,11.30
2019-04-23T00:35:12.643Z,4.90
2019-04-23T00:35:56.114Z,6.60
2019-04-23T00:37:01.592Z,6.90
2019-04-23T00:38:04.999Z,5.50
2019-04-23T00:38:54.271Z,6.20
2019-04-23T00:39:56.766Z,5.80
2019-04-23T00:40:57.661Z,5.00
2019-04-23T00:41:58.686Z,6.20
2019-04-23T00:43:02.012Z,5.70
2019-04-23T00:44:02.952Z,7.00
2019-04-23T00:44:56.270Z,3.90
2019-04-23T00:45:55.076Z,5.40
2019-04-23T00:47:00.779Z,7.90
2019-04-23T00:47:54.703Z,6.80
2019-04-23T00:49:07.427Z,7.20
2019-04-23T00:50:08.611Z,7.40
2019-04-23T00:51:09.996Z,5.20
2019-04-23T00:52:00.735Z,6.60
2019-04-23T00:53:01.949Z,6.20
2019-04-23T00:53:58.700Z,5.80
2019-04-23T00:55:07.266Z,7.60
2019-04-23T00:57:00.766Z,4.30
2019-04-23T00:58:08.491Z,8.00
2019-04-23T00:59:01.047Z,7.60
2019-04-23T01:00:03.455Z,5.30
2019-04-23T01:00:58.552Z,6.60
2019-04-23T01:02:59.056Z,7.60
2019-04-23T01:04:02.285Z,7.60
2019-04-23T01:05:08.547Z,7.00
2019-04-23T01:06:04.600Z,5.70
2019-04-23T01:07:00.288Z,7.30
2019-04-23T01:07:58.137Z,5.50
2019-04-23T01:09:25.764Z,4.20
2019-04-23T01:10:01.154Z,6.50
2019-04-23T01:11:59.400Z,7.80
2019-04-23T01:13:00.067Z,5.30
2019-04-23T01:13:54.030Z,4.10
2019-04-23T01:15:02.751Z,8.00
2019-04-23T01:15:59.611Z,4.30
2019-04-23T01:17:01.801Z,5.50
2019-04-23T01:18:08.122Z,6.50
2019-04-23T01:20:17.618Z,5.80
2019-04-23T01:20:52.924Z,5.50
2019-04-23T01:21:38.949Z,5.40
2019-04-23T01:22:37.953Z,7.80
2019-04-23T01:23:44.535Z,6.50
2019-04-23T01:24:40.350Z,5.60
2019-04-23T01:25:50.105Z,8.50
2019-04-23T01:27:18.468Z,5.90
2019-04-23T01:28:05.851Z,5.40
2019-04-23T01:29:01.410Z,5.90
2019-04-23T01:31:09.359Z,6.50
2019-04-23T01:31:58.886Z,6.40
2019-04-23T01:33:03.313Z,9.60
2019-04-23T01:34:07.976Z,6.10
2019-04-23T01:35:12.863Z,5.00
2019-04-23T01:36:16.150Z,5.50
2019-04-23T01:37:01.092Z,4.50
2019-04-23T01:37:59.430Z,4.60
2019-04-23T01:39:06.217Z,5.40
2019-04-23T01:40:03.757Z,5.70
2019-04-23T01:41:07.795Z,7.80
2019-04-23T01:42:24.023Z,5.90
2019-04-23T01:43:05.495Z,9.90
2019-04-23T01:43:58.225Z,6.60
2019-04-23T01:45:06.997Z,6.20
2019-04-23T01:46:04.592Z,7.40
2019-04-23T01:47:05.935Z,8.60
2019-04-23T01:48:00.055Z,7.00
2019-04-23T01:49:07.770Z,8.40
2019-04-23T01:50:09.672Z,7.00
2019-04-23T01:50:57.509Z,5.80
2019-04-23T01:52:12.911Z,5.30
2019-04-23T01:53:12.298Z,7.30
2019-04-23T01:54:06.917Z,5.70
2019-04-23T01:55:08.127Z,6.90
2019-04-23T01:56:21.073Z,5.90
2019-04-23T01:57:06.290Z,5.70
2019-04-23T01:58:23.749Z,9.20
2019-04-23T01:59:05.108Z,7.10
2019-04-23T02:00:08.876Z,5.60
2019-04-23T02:02:08.651Z,7.60
2019-04-23T02:03:03.674Z,7.80
2019-04-23T02:05:09.742Z,7.80
2019-04-23T02:07:08.452Z,6.50
2019-04-23T02:08:03.516Z,6.70
2019-04-23T02:09:10.165Z,7.10
2019-04-23T02:10:08.343Z,7.60
2019-04-23T02:11:10.514Z,5.40
2019-04-23T02:12:04.422Z,6.30
2019-04-23T02:14:01.707Z,6.10
2019-04-23T02:15:03.690Z,8.30
2019-04-23T02:16:01.321Z,5.20
2019-04-23T02:17:00.144Z,8.60
2019-04-23T02:18:05.528Z,5.90
2019-04-23T02:19:07.697Z,7.00
2019-04-23T02:20:14.124Z,7.50
2019-04-23T02:20:59.539Z,7.20
2019-04-23T02:22:05.074Z,5.70
2019-04-23T02:23:14.930Z,6.40
2019-04-23T02:23:57.203Z,6.60
2019-04-23T02:25:02.401Z,6.20
2019-04-23T02:26:03.011Z,5.80
2019-04-23T02:27:05.950Z,8.20
2019-04-23T02:28:07.521Z,7.40
2019-04-23T02:29:28.753Z,7.70
2019-04-23T02:30:15.146Z,6.30
2019-04-23T02:31:21.383Z,6.00
2019-04-23T02:33:19.644Z,7.70
2019-04-23T02:34:21.338Z,6.20
2019-04-23T02:35:38.638Z,7.00
2019-04-23T02:37:14.971Z,7.60
2019-04-23T02:40:13.599Z,7.90
2019-04-23T02:41:13.182Z,6.50
2019-04-23T02:43:12.662Z,8.40
2019-04-23T02:45:10.231Z,5.40
2019-04-23T02:46:06.094Z,8.40
2019-04-23T02:47:23.558Z,8.00
2019-04-23T02:49:22.097Z,6.70
2019-04-23T02:50:29.654Z,9.50
2019-04-23T02:51:12.535Z,7.50
2019-04-23T02:52:21.361Z,5.90
2019-04-23T02:53:20.841Z,7.50
2019-04-23T02:54:16.027Z,7.90
2019-04-23T02:55:29.549Z,8.20
2019-04-23T02:56:24.181Z,8.20
2019-04-23T02:57:08.900Z,7.90
2019-04-23T02:58:11.002Z,8.00
2019-04-23T03:02:24.076Z,7.30
2019-04-23T03:06:05.937Z,8.40
2019-04-23T03:07:16.168Z,7.80
2019-04-23T03:08:06.329Z,6.90
2019-04-23T03:09:13.002Z,7.70
2019-04-23T03:10:09.983Z,8.50
2019-04-23T03:11:24.988Z,7.80
2019-04-23T03:13:19.813Z,7.40
2019-04-23T03:14:12.094Z,8.20
2019-04-23T03:16:15.541Z,8.60
2019-04-23T03:18:25.858Z,9.60
2019-04-23T03:19:11.311Z,9.80
2019-04-23T03:20:14.726Z,7.10
2019-04-23T03:22:15.359Z,9.10
2019-04-23T03:23:17.112Z,7.70
2019-04-23T03:25:10.688Z,8.40
2019-04-23T03:26:14.091Z,8.60
2019-04-23T03:27:17.047Z,9.60
2019-04-23T03:28:11.917Z,7.50
2019-04-23T03:29:16.708Z,8.20
2019-04-23T03:34:50.224Z,7.80
2019-04-23T03:39:03.074Z,8.40
2019-04-23T03:41:17.244Z,10.00
2019-04-23T03:42:12.010Z,10.10
2019-04-23T03:43:19.411Z,12.00
2019-04-23T03:44:06.640Z,8.30
2019-04-23T03:46:16.159Z,9.30
2019-04-23T03:47:16.288Z,9.30
2019-04-23T03:48:16.792Z,10.10
2019-04-23T03:49:19.523Z,9.60
2019-04-23T03:51:03.154Z,10.40
2019-04-23T03:52:23.265Z,9.30
2019-04-23T03:53:03.469Z,10.20
2019-04-23T03:54:26.220Z,11.50
2019-04-23T03:55:10.205Z,11.00
2019-04-23T03:56:12.454Z,9.90
2019-04-23T03:58:10.615Z,9.70
2019-04-23T03:59:10.713Z,11.10
2019-04-23T04:00:12.626Z,11.00
2019-04-23T04:01:11.964Z,10.50
2019-04-23T04:02:20.847Z,10.30
2019-04-23T04:05:17.299Z,10.50
2019-04-23T04:06:20.753Z,10.90
2019-04-23T04:07:22.594Z,11.70
2019-04-23T04:08:13.761Z,11.00
2019-04-23T04:09:21.126Z,11.00
2019-04-23T04:10:10.722Z,12.70
2019-04-23T04:11:11.399Z,11.80
2019-04-23T04:12:12.489Z,10.50
2019-04-23T04:13:07.275Z,10.30
2019-04-23T04:14:36.331Z,12.20
2019-04-23T04:15:18.340Z,13.00
2019-04-23T04:17:13.797Z,10.40
2019-04-23T04:18:28.624Z,10.80
2019-04-23T04:19:16.792Z,12.20
2019-04-23T04:22:21.726Z,12.80
2019-04-23T04:24:21.800Z,11.10
2019-04-23T04:25:06.742Z,11.70
2019-04-23T04:27:29.147Z,13.60
2019-04-23T04:28:14.632Z,12.90
2019-04-23T04:29:15.156Z,12.70
2019-04-23T04:31:05.734Z,12.50
2019-04-23T04:33:15.061Z,12.90
2019-04-23T04:34:21.406Z,12.70
2019-04-23T04:35:20.962Z,12.50
2019-04-23T04:36:13.946Z,13.20
2019-04-23T04:38:20.232Z,15.00
2019-04-23T04:38:59.066Z,11.60
2019-04-23T04:40:23.380Z,13.90
2019-04-23T04:41:09.593Z,14.50
2019-04-23T04:43:24.869Z,15.00
2019-04-23T04:44:38.238Z,13.40
2019-04-23T04:45:24.752Z,11.80
2019-04-23T04:46:34.891Z,14.70
2019-04-23T04:47:33.888Z,13.70
2019-04-23T04:47:58.859Z,12.10
2019-04-23T04:50:06.493Z,15.50
2019-04-23T04:52:22.631Z,14.90
2019-04-23T04:53:22.838Z,13.00
2019-04-23T04:54:21.499Z,13.20
2019-04-23T04:55:21.037Z,12.70
2019-04-23T04:56:14.512Z,15.10
2019-04-23T04:57:10.234Z,13.80
2019-04-23T04:58:07.113Z,14.30
2019-04-23T05:00:12.873Z,16.70
2019-04-23T05:01:13.761Z,14.60
2019-04-23T05:03:22.238Z,12.40
2019-04-23T05:04:14.511Z,11.60
2019-04-23T05:05:20.697Z,14.50
2019-04-23T05:06:16.204Z,14.30
2019-04-23T05:07:10.992Z,13.30
2019-04-23T05:08:11.339Z,15.40
2019-04-23T05:12:17.204Z,14.20
2019-04-23T05:13:22.191Z,15.40
2019-04-23T05:14:23.673Z,15.90
2019-04-23T05:16:07.724Z,15.20
2019-04-23T05:17:11.078Z,14.10
2019-04-23T05:18:17.443Z,15.10
2019-04-23T05:19:15.535Z,14.10
2019-04-23T05:20:04.613Z,14.90
2019-04-23T05:24:57.221Z,17.00
2019-04-23T05:26:02.827Z,14.60
2019-04-23T05:27:03.341Z,16.60
2019-04-23T05:28:08.238Z,15.70
2019-04-23T05:30:09.961Z,16.10
2019-04-23T05:31:05.816Z,15.70
2019-04-23T05:31:58.175Z,15.40
2019-04-23T05:33:07.836Z,15.50
2019-04-23T05:34:04.573Z,16.50
2019-04-23T05:35:07.999Z,16.40
2019-04-23T05:36:13.078Z,17.10
2019-04-23T05:37:00.315Z,16.00
2019-04-23T05:38:29.228Z,14.50
2019-04-23T05:39:12.190Z,15.70
2019-04-23T05:40:08.692Z,15.70
2019-04-23T05:41:11.613Z,16.00
2019-04-23T05:41:59.298Z,15.50
2019-04-23T05:43:08.615Z,14.60
2019-04-23T05:44:02.029Z,14.60
2019-04-23T05:46:04.733Z,17.30
2019-04-23T05:47:13.283Z,15.30
2019-04-23T05:48:06.769Z,14.90
2019-04-23T05:49:09.279Z,19.70
2019-04-23T05:50:10.049Z,20.80
2019-04-23T05:51:04.552Z,16.80
2019-04-23T05:52:14.820Z,15.70
2019-04-23T05:53:04.206Z,15.50
2019-04-23T05:53:58.019Z,14.50
2019-04-23T05:55:02.661Z,13.90
2019-04-23T05:56:01.552Z,17.50
2019-04-23T05:58:00.524Z,16.70
2019-04-23T05:59:07.284Z,17.00
2019-04-23T06:00:04.053Z,14.20
2019-04-23T06:01:08.670Z,14.20
2019-04-23T06:02:09.730Z,15.30
2019-04-23T06:03:04.819Z,17.80
2019-04-23T06:05:05.123Z,13.60
2019-04-23T06:06:08.144Z,14.20
2019-04-23T06:07:15.031Z,16.30
2019-04-23T06:08:07.364Z,14.50
2019-04-23T06:11:02.447Z,15.90
2019-04-23T06:12:57.716Z,15.60
2019-04-23T06:14:09.728Z,16.20
2019-04-23T06:14:57.482Z,16.60
2019-04-23T06:15:59.578Z,19.10
2019-04-23T06:17:12.952Z,15.80
2019-04-23T06:20:05.840Z,15.40
2019-04-23T06:21:05.640Z,14.30
2019-04-23T06:22:06.014Z,16.00
2019-04-23T06:23:05.491Z,15.20
2019-04-23T06:24:13.162Z,15.60
2019-04-23T06:25:01.700Z,14.40
2019-04-23T06:26:24.291Z,16.00
2019-04-23T06:28:05.107Z,15.40
2019-04-23T06:29:06.299Z,16.30
2019-04-23T06:30:19.237Z,17.00
2019-04-23T06:31:04.619Z,16.10
2019-04-23T06:32:12.973Z,16.20
2019-04-23T06:33:04.287Z,13.40
2019-04-23T06:34:04.477Z,16.40
2019-04-23T06:34:56.717Z,13.50
2019-04-23T06:36:05.203Z,16.70
2019-04-23T06:37:02.203Z,15.70
2019-04-23T06:38:22.119Z,16.00
2019-04-23T06:40:00.393Z,16.90
2019-04-23T06:41:00.749Z,15.30
2019-04-23T06:42:03.884Z,15.00
2019-04-23T06:42:57.872Z,16.70
2019-04-23T06:44:07.500Z,17.60
2019-04-23T06:44:59.973Z,15.10
2019-04-23T06:46:01.568Z,17.60
2019-04-23T06:47:03.116Z,15.10
2019-04-23T06:48:01.887Z,18.80
2019-04-23T06:49:02.407Z,15.70
2019-04-23T06:50:01.592Z,15.90
2019-04-23T06:51:09.214Z,14.90
2019-04-23T06:52:10.468Z,14.90
2019-04-23T06:52:54.478Z,19.70
2019-04-23T06:53:57.994Z,13.60
2019-04-23T06:56:06.649Z,16.60
2019-04-23T06:57:09.041Z,13.80
2019-04-23T06:58:06.351Z,15.50
2019-04-23T06:59:02.621Z,14.90
2019-04-23T07:00:13.974Z,14.10
2019-04-23T07:01:03.353Z,15.90
2019-04-23T07:02:06.378Z,16.20
2019-04-23T07:03:00.261Z,15.70
2019-04-23T07:06:13.834Z,16.10
2019-04-23T07:07:29.660Z,12.90
2019-04-23T07:08:04.414Z,16.00
2019-04-23T07:09:59.371Z,13.70
2019-04-23T07:11:11.506Z,16.20
2019-04-23T07:11:55.548Z,14.90
2019-04-23T07:13:06.355Z,15.00
2019-04-23T07:13:58.353Z,18.00
2019-04-23T07:15:11.628Z,13.10
2019-04-23T07:16:01.128Z,16.10
2019-04-23T07:16:58.924Z,14.50
2019-04-23T07:17:58.780Z,14.10
2019-04-23T07:19:04.649Z,13.40
2019-04-23T07:20:02.705Z,13.70
2019-04-23T07:21:06.528Z,15.80
2019-04-23T07:22:09.113Z,12.90
2019-04-23T07:23:04.871Z,16.30
2019-04-23T07:25:00.120Z,14.20
2019-04-23T07:26:06.298Z,13.80
2019-04-23T07:26:55.767Z,13.50
2019-04-23T07:28:07.130Z,13.80
2019-04-23T07:28:59.974Z,13.80
2019-04-23T07:30:11.533Z,12.60
2019-04-23T07:31:07.484Z,13.30
2019-04-23T07:32:05.906Z,12.00
2019-04-23T07:33:04.534Z,14.80
2019-04-23T07:36:58.794Z,12.40
2019-04-23T07:38:05.865Z,16.10
2019-04-23T07:39:11.763Z,12.00
2019-04-23T07:40:18.046Z,11.30
2019-04-23T07:41:05.697Z,13.10
2019-04-23T07:42:27.724Z,14.50
2019-04-23T07:43:03.258Z,14.60
2019-04-23T07:44:07.805Z,12.80
2019-04-23T07:45:02.401Z,13.60
2019-04-23T07:46:02.211Z,17.50
2019-04-23T07:47:11.723Z,12.90
2019-04-23T07:48:06.801Z,13.30
2019-04-23T07:48:56.437Z,13.00
2019-04-23T07:50:11.078Z,14.30
2019-04-23T07:50:57.981Z,13.60
2019-04-23T07:52:06.224Z,17.00
2019-04-23T07:53:08.005Z,12.30
2019-04-23T07:54:12.803Z,13.00
2019-04-23T07:56:02.289Z,12.10
2019-04-23T07:57:08.717Z,14.30
2019-04-23T07:58:12.311Z,13.50
2019-04-23T07:59:03.973Z,13.80
2019-04-23T08:00:00.889Z,13.40
2019-04-23T08:01:13.729Z,14.00
2019-04-23T08:02:06.238Z,14.50
2019-04-23T08:03:08.601Z,12.40
2019-04-23T08:04:16.922Z,13.70
2019-04-23T08:05:11.700Z,13.80
2019-04-23T08:05:59.138Z,14.40
2019-04-23T08:07:01.283Z,13.30
2019-04-23T08:08:03.540Z,13.10
2019-04-23T08:09:03.985Z,13.50
2019-04-23T08:10:00.693Z,14.00
2019-04-23T08:11:25.919Z,14.00
2019-04-23T08:12:02.997Z,16.30
2019-04-23T08:13:00.922Z,13.90
2019-04-23T08:14:04.897Z,10.70
2019-04-23T08:14:59.744Z,13.60
2019-04-23T08:16:06.933Z,11.10
2019-04-23T08:16:58.105Z,12.20
2019-04-23T08:18:01.908Z,18.00
2019-04-23T08:18:59.082Z,13.90
2019-04-23T08:19:59.661Z,15.10
2019-04-23T08:21:01.082Z,15.70
2019-04-23T08:22:06.651Z,15.80
2019-04-23T08:23:03.860Z,16.10
2019-04-23T08:26:13.534Z,13.60
2019-04-23T08:26:59.660Z,13.20
2019-04-23T08:28:01.735Z,14.00
2019-04-23T08:29:03.626Z,13.50
2019-04-23T08:29:58.019Z,11.10
2019-04-23T08:30:59.118Z,13.40
2019-04-23T08:32:03.569Z,11.00
2019-04-23T08:32:52.586Z,14.90
2019-04-23T08:34:05.653Z,12.60
2019-04-23T08:35:04.440Z,14.70
2019-04-23T08:36:09.459Z,11.40
2019-04-23T08:37:04.944Z,11.40
2019-04-23T08:38:09.484Z,15.20
2019-04-23T08:38:56.893Z,10.80
2019-04-23T08:39:52.139Z,13.80
2019-04-23T08:41:14.229Z,10.90
2019-04-23T08:42:21.670Z,12.80
2019-04-23T08:43:03.621Z,16.60
2019-04-23T08:43:57.340Z,13.40
2019-04-23T08:45:58.062Z,11.30
2019-04-23T08:47:05.472Z,13.30
2019-04-23T08:48:09.029Z,11.70
2019-04-23T08:49:03.298Z,12.90
2019-04-23T08:50:01.337Z,15.60
2019-04-23T08:51:08.153Z,13.10
2019-04-23T08:53:05.720Z,13.80
2019-04-23T08:54:03.030Z,13.40
2019-04-23T08:55:05.394Z,14.10
2019-04-23T08:55:56.424Z,12.10
2019-04-23T08:57:04.015Z,14.30
2019-04-23T08:57:58.109Z,14.20
2019-04-23T08:58:57.686Z,14.30
2019-04-23T08:59:55.903Z,13.40
2019-04-23T09:01:03.806Z,19.10
2019-04-23T09:02:18.930Z,11.60
2019-04-23T09:03:06.325Z,13.00
2019-04-23T09:04:00.405Z,11.80
2019-04-23T09:05:02.605Z,13.50
2019-04-23T09:07:09.611Z,11.80
2019-04-23T09:08:07.026Z,12.90
2019-04-23T09:08:58.557Z,15.90
2019-04-23T09:10:07.800Z,12.40
2019-04-23T09:11:30.880Z,15.20
2019-04-23T09:11:58.103Z,16.60
2019-04-23T09:13:26.144Z,13.00
2019-04-23T09:13:55.624Z,13.60
2019-04-23T09:15:04.008Z,14.00
2019-04-23T09:15:59.942Z,15.30
2019-04-23T09:17:06.670Z,11.80
2019-04-23T09:18:06.237Z,13.90
2019-04-23T09:19:03.941Z,13.20
2019-04-23T09:20:55.237Z,11.90
2019-04-23T09:22:10.941Z,13.40
2019-04-23T09:22:59.684Z,14.70
2019-04-23T09:23:59.057Z,13.40
2019-04-23T09:25:06.294Z,14.50
2019-04-23T09:26:00.845Z,12.40
2019-04-23T09:27:05.547Z,14.70
2019-04-23T09:28:02.858Z,12.20
2019-04-23T09:28:56.777Z,13.50
2019-04-23T09:30:07.056Z,12.70
2019-04-23T09:31:05.180Z,17.80
2019-04-23T09:32:59.982Z,16.00
2019-04-23T09:33:58.682Z,13.30
2019-04-23T09:35:08.529Z,12.70
2019-04-23T09:36:01.472Z,12.70
2019-04-23T09:37:06.142Z,11.90
2019-04-23T09:38:05.195Z,13.40
2019-04-23T09:39:00.271Z,12.60
2019-04-23T09:40:13.975Z,13.50
2019-04-23T09:41:09.858Z,15.80
2019-04-23T09:42:07.090Z,18.50
2019-04-23T09:43:00.429Z,15.30
2019-04-23T09:44:03.287Z,12.60
2019-04-23T09:45:15.798Z,15.10
2019-04-23T09:46:08.385Z,12.70
2019-04-23T09:49:09.572Z,14.50
2019-04-23T09:50:01.264Z,14.00
2019-04-23T09:52:03.678Z,15.20
2019-04-23T09:54:02.901Z,11.00
2019-04-23T09:55:11.390Z,11.50
2019-04-23T09:55:53.081Z,13.30
2019-04-23T09:57:14.042Z,13.20
2019-04-23T09:58:03.171Z,15.60
2019-04-23T09:59:01.206Z,13.70
2019-04-23T09:59:58.162Z,13.30
2019-04-23T10:00:54.670Z,12.50
2019-04-23T10:01:52.928Z,12.70
2019-04-23T10:02:47.326Z,15.40
2019-04-23T10:03:42.549Z,13.40
2019-04-23T10:04:48.767Z,15.00
2019-04-23T10:05:45.107Z,9.90
2019-04-23T10:06:33.434Z,12.50
2019-04-23T10:07:46.206Z,16.00
2019-04-23T10:08:39.775Z,18.60
2019-04-23T10:09:32.343Z,11.90
2019-04-23T10:10:32.484Z,10.80
2019-04-23T10:11:32.369Z,11.80
2019-04-23T10:12:32.146Z,15.50
2019-04-23T10:13:31.655Z,11.50
2019-04-23T10:14:32.406Z,14.60
2019-04-23T10:15:36.354Z,13.20
2019-04-23T10:16:34.231Z,12.90
2019-04-23T10:17:31.935Z,13.30
2019-04-23T10:18:31.055Z,12.80
2019-04-23T10:19:30.943Z,13.70
2019-04-23T10:20:30.975Z,14.00
2019-04-23T10:21:31.278Z,12.20
2019-04-23T10:22:34.028Z,13.10
2019-04-23T10:23:31.545Z,14.00
2019-04-23T10:24:31.075Z,13.40
2019-04-23T10:25:31.956Z,11.70
2019-04-23T10:26:32.242Z,13.20
2019-04-23T10:27:30.859Z,13.70
2019-04-23T10:28:31.770Z,15.00
2019-04-23T10:29:31.935Z,11.60
2019-04-23T10:30:31.216Z,14.00
2019-04-23T10:31:31.526Z,14.70
2019-04-23T10:32:31.803Z,15.00
2019-04-23T10:33:31.883Z,13.90
2019-04-23T10:34:43.038Z,13.30
2019-04-23T10:35:41.095Z,11.00
2019-04-23T10:36:32.506Z,13.20
2019-04-23T10:37:41.906Z,12.90
2019-04-23T10:38:32.723Z,16.20
2019-04-23T10:39:35.792Z,11.60
2019-04-23T10:40:35.847Z,15.70
2019-04-23T10:41:32.688Z,12.20
2019-04-23T10:42:33.294Z,11.60
2019-04-23T10:43:31.552Z,14.20
2019-04-23T10:44:32.693Z,15.30
2019-04-23T10:45:44.650Z,11.20
2019-04-23T10:48:07.483Z,13.30
2019-04-23T10:49:00.656Z,12.10
2019-04-23T10:50:00.712Z,12.20
2019-04-23T10:50:59.698Z,15.00
2019-04-23T10:52:07.604Z,11.70
2019-04-23T10:53:13.254Z,14.90
2019-04-23T10:54:07.281Z,11.10
2019-04-23T10:55:02.649Z,15.10
2019-04-23T10:56:21.202Z,14.50
2019-04-23T10:56:59.848Z,14.30
2019-04-23T10:58:01.219Z,13.70
2019-04-23T10:58:54.424Z,14.80
2019-04-23T11:00:59.998Z,11.60
2019-04-23T11:02:21.689Z,11.90
2019-04-23T11:03:15.859Z,12.30
2019-04-23T11:04:10.551Z,14.10
2019-04-23T11:05:11.435Z,15.00
2019-04-23T11:07:07.208Z,13.90
2019-04-23T11:07:54.792Z,13.30
2019-04-23T11:09:06.375Z,16.50
2019-04-23T11:10:03.306Z,14.60
2019-04-23T11:10:58.748Z,12.60
2019-04-23T11:12:07.892Z,14.00
2019-04-23T11:12:50.746Z,12.60
2019-04-23T11:14:07.815Z,16.40
2019-04-23T11:15:08.636Z,12.40
2019-04-23T11:16:24.840Z,15.60
2019-04-23T11:17:17.106Z,10.80
2019-04-23T11:17:59.344Z,14.50
2019-04-23T11:19:15.455Z,12.00
2019-04-23T11:20:11.261Z,12.90
2019-04-23T11:21:00.921Z,15.60
2019-04-23T11:22:20.721Z,14.50
2019-04-23T11:23:09.178Z,13.60
2019-04-23T11:24:01.680Z,17.10
2019-04-23T11:25:15.221Z,14.10
2019-04-23T11:26:03.369Z,11.80
2019-04-23T11:27:00.559Z,11.80
2019-04-23T11:29:02.103Z,16.60
2019-04-23T11:30:10.643Z,14.90
2019-04-23T11:30:55.312Z,15.20
2019-04-23T11:32:11.692Z,11.30
2019-04-23T11:34:12.529Z,16.30
2019-04-23T11:35:11.135Z,11.30
2019-04-23T11:36:22.157Z,14.60
2019-04-23T11:37:03.883Z,13.00
2019-04-23T11:38:32.283Z,13.00
2019-04-23T11:40:01.646Z,10.70
2019-04-23T11:41:02.007Z,14.20
2019-04-23T11:42:08.627Z,13.50
2019-04-23T11:43:08.763Z,15.60
2019-04-23T11:43:53.389Z,12.40
2019-04-23T11:45:28.137Z,13.50
2019-04-23T11:46:10.442Z,15.10
2019-04-23T11:47:44.181Z,13.20
2019-04-23T11:48:21.851Z,12.50
2019-04-23T11:49:20.308Z,14.40
2019-04-23T11:50:12.338Z,11.90
2019-04-23T11:52:21.167Z,17.50
2019-04-23T11:52:56.910Z,12.30
2019-04-23T11:54:03.472Z,16.00
2019-04-23T11:55:04.401Z,14.40
2019-04-23T11:56:07.102Z,11.30
2019-04-23T11:58:07.690Z,12.70
2019-04-23T11:59:06.916Z,16.70
2019-04-23T11:59:59.059Z,12.70
2019-04-23T12:01:11.094Z,11.60
2019-04-23T12:01:56.460Z,13.20
2019-04-23T12:02:54.326Z,14.80
2019-04-23T12:04:13.964Z,14.90
2019-04-23T12:05:21.709Z,12.30
2019-04-23T12:06:09.425Z,13.80
2019-04-23T12:07:00.111Z,14.20
2019-04-23T12:08:01.523Z,15.90
2019-04-23T12:08:56.597Z,14.20
2019-04-23T12:11:27.211Z,15.70
2019-04-23T12:12:55.551Z,16.10
2019-04-23T12:14:04.231Z,13.80
2019-04-23T12:14:51.276Z,11.70
2019-04-23T12:16:00.468Z,13.30
2019-04-23T12:17:15.333Z,13.60
2019-04-23T12:19:28.418Z,12.70
2019-04-23T12:20:02.875Z,17.10
2019-04-23T12:20:57.339Z,14.30
2019-04-23T12:22:01.182Z,13.30
2019-04-23T12:23:18.174Z,14.50
2019-04-23T12:24:07.227Z,13.50
2019-04-23T12:26:07.330Z,15.60
2019-04-23T12:27:01.001Z,14.70
2019-04-23T12:27:47.063Z,11.60
2019-04-23T12:28:57.610Z,16.70
2019-04-23T12:30:01.591Z,13.60
2019-04-23T12:31:17.373Z,14.10
2019-04-23T12:32:06.250Z,17.50
2019-04-23T12:34:09.710Z,16.80
2019-04-23T12:35:51.983Z,13.90
2019-04-23T12:36:56.896Z,13.60
2019-04-23T12:39:08.817Z,11.40
2019-04-23T12:40:11.549Z,14.50
2019-04-23T12:40:56.245Z,14.20
2019-04-23T12:42:01.725Z,11.10
2019-04-23T12:44:00.891Z,17.10
2019-04-23T12:45:11.364Z,15.80
2019-04-23T12:45:50.508Z,15.30
2019-04-23T12:47:07.026Z,12.40
2019-04-23T12:50:20.792Z,15.90
2019-04-23T12:51:17.499Z,13.90
2019-04-23T12:53:59.457Z,12.60
2019-04-23T12:55:10.190Z,11.90
2019-04-23T12:56:05.161Z,16.60
2019-04-23T12:57:09.020Z,16.30
2019-04-23T12:58:51.043Z,13.30
2019-04-23T13:00:03.055Z,17.00
2019-04-23T13:00:54.511Z,13.20
2019-04-23T13:02:03.386Z,11.50
2019-04-23T13:02:57.134Z,13.70
2019-04-23T13:03:55.966Z,15.20
2019-04-23T13:05:00.530Z,11.10
2019-04-23T13:05:50.488Z,13.80
2019-04-23T13:06:57.862Z,11.30
2019-04-23T13:09:22.040Z,13.20
2019-04-23T13:10:01.577Z,15.10
2019-04-23T13:11:01.254Z,14.70
2019-04-23T13:11:58.009Z,12.90
2019-04-23T13:13:01.442Z,15.10
2019-04-23T13:14:00.492Z,13.10
2019-04-23T13:15:53.620Z,13.80
2019-04-23T13:17:25.220Z,11.30
2019-04-23T13:17:54.178Z,13.50
2019-04-23T13:19:03.584Z,14.40
2019-04-23T13:20:00.549Z,13.10
2019-04-23T13:21:02.091Z,12.30
2019-04-23T13:22:16.573Z,13.50
2019-04-23T13:23:03.094Z,17.60
2019-04-23T13:23:55.584Z,19.70
2019-04-23T13:25:01.996Z,19.00
2019-04-23T13:26:48.829Z,14.90
2019-04-23T13:28:01.948Z,13.20
2019-04-23T13:28:52.876Z,15.00
2019-04-23T13:30:16.652Z,17.30
2019-04-23T13:31:59.178Z,12.00
2019-04-23T13:33:03.108Z,14.30
2019-04-23T13:34:13.505Z,13.10
2019-04-23T13:35:11.184Z,11.60
2019-04-23T13:37:03.099Z,13.80
2019-04-23T13:37:58.999Z,15.30
2019-04-23T13:38:58.425Z,14.10
2019-04-23T13:40:17.346Z,11.70
2019-04-23T13:41:01.750Z,13.70
2019-04-23T13:41:52.485Z,13.70
2019-04-23T13:43:00.944Z,12.40
2019-04-23T13:43:49.484Z,13.60
2019-04-23T13:45:05.257Z,17.40
2019-04-23T13:47:00.515Z,17.80
2019-04-23T13:48:01.190Z,15.00
2019-04-23T13:48:58.863Z,14.00
2019-04-23T13:50:33.282Z,15.30
2019-04-23T13:51:00.234Z,14.10
2019-04-23T13:51:58.700Z,16.10
2019-04-23T13:53:53.551Z,14.10
2019-04-23T13:55:10.981Z,14.30
2019-04-23T13:55:56.559Z,12.80
2019-04-23T13:57:36.402Z,13.60
2019-04-23T13:58:09.114Z,13.90
2019-04-23T13:59:16.665Z,13.20
2019-04-23T13:59:56.211Z,15.00
2019-04-23T14:01:22.829Z,15.40
2019-04-23T14:01:58.580Z,17.50
2019-04-23T14:02:54.524Z,16.70
2019-04-23T14:03:54.093Z,13.60
2019-04-23T14:04:59.726Z,17.00
2019-04-23T14:06:01.786Z,16.70
2019-04-23T14:06:59.506Z,14.90
2019-04-23T14:07:59.663Z,13.70
2019-04-23T14:10:06.626Z,15.30
2019-04-23T14:10:55.417Z,14.80
2019-04-23T14:11:51.227Z,19.90
2019-04-23T14:13:15.002Z,14.40
2019-04-23T14:14:21.948Z,17.50
2019-04-23T14:17:02.610Z,17.20
2019-04-23T14:18:22.681Z,13.80
2019-04-23T14:20:04.165Z,12.80
2019-04-23T14:20:58.983Z,17.70
2019-04-23T14:22:13.718Z,15.30
2019-04-23T14:23:08.351Z,15.20
2019-04-23T14:24:08.220Z,16.40
2019-04-23T14:26:10.998Z,12.70
2019-04-23T14:26:59.187Z,16.60
2019-04-23T14:28:08.061Z,14.50
2019-04-23T14:28:55.292Z,15.10
2019-04-23T14:30:07.217Z,13.30
2019-04-23T14:30:59.159Z,16.70
2019-04-23T14:32:04.405Z,16.90
2019-04-23T14:33:00.945Z,14.80
2019-04-23T14:35:21.308Z,14.90
2019-04-23T14:36:05.371Z,17.50
2019-04-23T14:37:04.151Z,11.00
2019-04-23T14:38:15.905Z,14.30
2019-04-23T14:38:57.483Z,14.00
2019-04-23T14:40:10.998Z,14.30
2019-04-23T14:41:16.519Z,14.00
2019-04-23T14:42:14.532Z,16.80
2019-04-23T14:44:03.104Z,15.00
2019-04-23T14:45:13.852Z,15.70
2019-04-23T14:46:23.092Z,14.10
2019-04-23T14:48:05.870Z,15.10
2019-04-23T14:48:57.666Z,17.50
2019-04-23T14:50:23.993Z,13.80
2019-04-23T14:50:56.907Z,13.30
2019-04-23T14:52:02.468Z,15.20
2019-04-23T14:53:10.609Z,16.50
2019-04-23T14:54:02.999Z,15.90
2019-04-23T14:55:36.210Z,16.10
2019-04-23T14:57:08.653Z,18.30
2019-04-23T14:59:01.641Z,15.10
2019-04-23T15:00:03.417Z,11.80
2019-04-23T15:01:17.732Z,15.50
2019-04-23T15:01:58.230Z,17.40
2019-04-23T15:04:59.440Z,12.90
2019-04-23T15:07:00.722Z,17.10
2019-04-23T15:08:02.197Z,11.00
2019-04-23T15:09:06.209Z,13.20
2019-04-23T15:10:01.519Z,13.50
2019-04-23T15:12:02.053Z,15.30
2019-04-23T15:12:59.932Z,12.60
2019-04-23T15:13:55.299Z,12.00
2019-04-23T15:16:08.092Z,15.10
2019-04-23T15:17:00.118Z,12.70
2019-04-23T15:17:57.606Z,13.20
2019-04-23T15:19:10.993Z,11.00